Time;durP1;ratioP1;P1;durP2;ratioP2;P2;SDS_P1;SDS_P2;PMS_P1;PMS_P2;Temp;Humidity;BMP_temperature;BMP_pressure;BME280_temperature;BME280_humidity;BME280_pressure;Samples;Min_cycle;Max_cycle;Signal;HPM_P1;HPM_P2
2023/09/08 00:01:33;;;;;;;0.10;0.10;;;;;;;17.45;60.14;100379.91;5299797;27;20079;-94
2023/09/08 00:03:58;;;;;;;2.92;0.65;;;;;;;17.41;60.14;100381.00;5299655;27;20064;-93
2023/09/08 00:06:23;;;;;;;0.10;0.10;;;;;;;17.47;60.15;100383.31;5299314;27;20121;-93
2023/09/08 00:08:49;;;;;;;0.00;0.00;;;;;;;17.44;60.14;100375.59;5299251;27;20049;-92
2023/09/08 00:11:14;;;;;;;3.25;0.98;;;;;;;17.40;60.15;100379.31;5299357;27;20120;-92
2023/09/08 00:13:40;;;;;;;0.00;0.00;;;;;;;17.42;60.14;100378.28;5298905;27;20112;-93
2023/09/08 00:16:07;;;;;;;0.62;0.62;;;;;;;17.48;60.15;100374.50;5317681;27;20057;-94
2023/09/08 00:18:33;;;;;;;0.13;0.13;;;;;;;17.45;60.14;100380.78;5263651;27;20433;-94
2023/09/08 00:20:58;;;;;;;0.15;0.10;;;;;;;17.40;60.14;100380.16;5299698;27;20119;-93
2023/09/08 00:23:23;;;;;;;0.10;0.10;;;;;;;17.46;60.14;100381.62;5299289;27;20088;-94
2023/09/08 00:25:49;;;;;;;0.25;0.25;;;;;;;17.39;60.14;100380.22;5317862;27;20053;-94
2023/09/08 00:28:14;;;;;;;0.47;0.47;;;;;;;17.27;60.14;100379.09;5317604;27;20443;-94
2023/09/08 00:30:40;;;;;;;0.08;0.08;;;;;;;17.09;60.13;100387.88;5299082;27;24476;-93
2023/09/08 00:33:08;;;;;;;0.10;0.10;;;;;;;16.94;60.12;100389.44;5299442;27;20072;-93
2023/09/08 00:35:34;;;;;;;1.65;0.13;;;;;;;17.01;60.12;100390.00;5299339;27;20360;-93
2023/09/08 00:38:00;;;;;;;0.80;0.80;;;;;;;16.86;60.11;100387.19;5263190;27;20052;-93
2023/09/08 00:40:27;;;;;;;0.35;0.35;;;;;;;16.95;60.12;100380.63;5317283;27;20119;-92
2023/09/08 00:43:06;;;;;;;0.28;0.17;;;;;;;16.94;60.12;100378.94;5298855;27;20686;-92
2023/09/08 00:45:32;;;;;;;0.00;0.00;;;;;;;17.05;60.12;100376.66;5296150;27;20085;-93
2023/09/08 00:47:57;;;;;;;0.10;0.08;;;;;;;16.96;60.12;100381.47;5298930;27;20103;-92
2023/09/08 00:50:23;;;;;;;0.20;0.20;;;;;;;17.04;60.12;100374.94;5280985;27;20083;-92
2023/09/08 00:52:48;;;;;;;1.15;0.65;;;;;;;17.01;60.12;100369.81;5298666;27;20108;-93
2023/09/08 00:55:13;;;;;;;0.10;0.10;;;;;;;17.27;60.13;100368.56;5280615;27;20102;-92
2023/09/08 00:57:39;;;;;;;0.00;0.00;;;;;;;16.90;60.11;100368.63;5298668;27;20067;-92
2023/09/08 01:00:08;;;;;;;0.80;0.68;;;;;;;16.76;60.10;100375.41;5298828;27;20135;-92
2023/09/08 01:02:33;;;;;;;2.90;0.68;;;;;;;16.87;60.12;100362.59;5299008;27;20183;-92
2023/09/08 01:04:59;;;;;;;0.28;0.22;;;;;;;16.79;60.11;100356.84;5299819;27;20108;-92
2023/09/08 01:07:25;;;;;;;0.37;0.32;;;;;;;16.72;60.11;100358.06;5281504;27;20115;-94
2023/09/08 01:09:50;;;;;;;0.00;0.00;;;;;;;16.61;60.09;100357.72;5281378;27;20406;-93
2023/09/08 01:12:16;;;;;;;0.10;0.10;;;;;;;16.64;60.10;100360.19;5299279;27;20069;-94
2023/09/08 01:14:41;;;;;;;0.62;0.62;;;;;;;16.83;60.11;100355.78;5299478;27;20076;-94
2023/09/08 01:17:07;;;;;;;0.45;0.43;;;;;;;16.80;60.11;100353.31;5281244;27;20890;-92
2023/09/08 01:19:32;;;;;;;0.25;0.15;;;;;;;16.76;60.10;100349.09;5299198;27;20132;-93
2023/09/08 01:22:31;;;;;;;0.98;0.57;;;;;;;16.77;60.11;100356.06;5298801;27;20110;-92
2023/09/08 01:25:17;;;;;;;0.03;0.03;;;;;;;16.80;60.10;100357.72;5281485;27;20057;-94
2023/09/08 01:27:46;;;;;;;0.28;0.28;;;;;;;16.76;60.10;100353.50;5264009;27;20106;-93
2023/09/08 01:30:12;;;;;;;0.85;0.17;;;;;;;16.82;60.10;100351.47;5263668;27;20720;-94
2023/09/08 01:32:38;;;;;;;0.20;0.20;;;;;;;16.83;60.11;100347.06;5299242;27;20430;-94
2023/09/08 01:35:04;;;;;;;1.67;1.10;;;;;;;16.90;60.11;100345.81;5299909;27;20108;-95
2023/09/08 01:37:29;;;;;;;0.00;0.00;;;;;;;16.98;60.12;100351.56;5263598;27;20088;-93
2023/09/08 01:39:55;;;;;;;0.13;0.10;;;;;;;17.04;60.12;100346.00;5299480;27;20111;-95
2023/09/08 01:42:22;;;;;;;0.32;0.32;;;;;;;17.07;60.12;100342.37;5299872;27;20058;-93
2023/09/08 01:44:48;;;;;;;0.00;0.00;;;;;;;17.03;60.12;100346.91;5280815;27;20886;-95
2023/09/08 01:47:13;;;;;;;4.35;0.52;;;;;;;16.91;60.11;100342.25;5299766;27;20061;-94
2023/09/08 01:49:41;;;;;;;0.37;0.20;;;;;;;16.98;60.11;100337.56;5299401;27;20078;-95
2023/09/08 01:52:06;;;;;;;16.45;0.65;;;;;;;16.97;60.12;100347.22;5299142;27;20127;-95
2023/09/08 01:54:32;;;;;;;0.55;0.30;;;;;;;16.93;60.11;100339.56;5299631;27;20072;-95
2023/09/08 01:57:02;;;;;;;0.10;0.10;;;;;;;16.85;60.12;100335.53;5299848;27;20057;-95
2023/09/08 01:59:43;;;;;;;;;;;;;;;;;;;;;
2023/09/08 02:02:21;;;;;;;0.47;0.47;;;;;;;16.95;60.11;100332.44;5282815;27;36912;-94
2023/09/08 02:05:04;;;;;;;;;;;;;;;;;;;;;
2023/09/08 02:10:27;;;;;;;0.10;0.10;;;;;;;16.92;60.11;100343.13;5277265;27;20061;-96
2023/09/08 02:12:55;;;;;;;0.10;0.10;;;;;;;16.79;60.11;100335.81;5299443;27;20079;-93
2023/09/08 02:15:21;;;;;;;1.12;1.00;;;;;;;16.65;60.10;100342.63;5299549;27;20073;-93
2023/09/08 02:17:46;;;;;;;1.15;1.05;;;;;;;16.66;60.10;100341.72;5281069;27;20112;-95
2023/09/08 02:20:12;;;;;;;0.00;0.00;;;;;;;16.64;60.10;100341.78;5298602;27;20345;-93
2023/09/08 02:22:37;;;;;;;0.30;0.30;;;;;;;16.77;60.11;100345.53;5299292;27;20394;-94
2023/09/08 02:25:03;;;;;;;0.40;0.40;;;;;;;16.69;60.10;100334.56;5299428;27;20056;-93
2023/09/08 02:27:29;;;;;;;0.08;0.08;;;;;;;16.76;60.10;100337.72;5299440;27;20066;-96
2023/09/08 02:29:54;;;;;;;0.00;0.00;;;;;;;16.77;60.11;100335.03;5299831;27;20087;-95
2023/09/08 02:32:20;;;;;;;0.32;0.20;;;;;;;16.79;60.11;100335.81;5299254;27;20064;-94
2023/09/08 02:34:45;;;;;;;0.55;0.30;;;;;;;16.87;60.11;100335.47;5299171;27;20333;-93
2023/09/08 02:37:11;;;;;;;2.40;1.15;;;;;;;17.04;60.12;100335.50;5299283;27;20348;-93
2023/09/08 02:39:36;;;;;;;5.72;1.92;;;;;;;16.98;60.11;100337.56;5299047;27;20110;-92
2023/09/08 02:42:02;;;;;;;0.20;0.20;;;;;;;16.83;60.10;100339.16;5280464;27;20383;-94
2023/09/08 02:44:29;;;;;;;1.25;1.15;;;;;;;16.77;60.11;100336.81;5298579;27;20057;-94
2023/09/08 02:46:54;;;;;;;0.00;0.00;;;;;;;16.72;60.10;100344.91;5299265;27;20071;-94
2023/09/08 02:49:28;;;;;;;2.80;0.68;;;;;;;16.77;60.11;100345.53;5299073;27;20057;-94
2023/09/08 02:52:04;;;;;;;0.20;0.20;;;;;;;16.85;60.11;100351.31;5263645;27;20772;-96
2023/09/08 02:54:29;;;;;;;0.52;0.13;;;;;;;16.70;60.10;100346.78;5298272;27;20054;-94
2023/09/08 02:56:57;;;;;;;0.13;0.13;;;;;;;16.71;60.10;100347.62;5299402;27;20110;-94
2023/09/08 02:59:30;;;;;;;0.30;0.30;;;;;;;16.48;60.09;100341.66;5300116;27;20033;-94
2023/09/08 03:01:58;;;;;;;0.00;0.00;;;;;;;16.78;60.11;100347.25;5298506;27;20089;-93
2023/09/08 03:04:26;;;;;;;0.17;0.15;;;;;;;16.50;60.09;100346.81;5299082;27;20941;-95
2023/09/08 03:06:57;;;;;;;1.35;1.00;;;;;;;16.43;60.08;100346.28;5299687;27;20060;-93
2023/09/08 03:09:44;;;;;;;0.00;0.00;;;;;;;16.37;60.08;100351.81;5298029;27;20084;-94
2023/09/08 03:12:36;;;;;;;7.55;1.85;;;;;;;16.43;60.08;100348.03;5280982;27;20054;-93
2023/09/08 03:15:48;;;;;;;;;;;;;;;;;;;;;
2023/09/08 03:18:13;;;;;;;0.45;0.45;;;;;;;16.15;60.07;100353.72;5273508;27;37072;-93
2023/09/08 03:20:41;;;;;;;0.08;0.08;;;;;;;16.15;60.07;100351.09;5299034;27;20080;-92
2023/09/08 03:23:06;;;;;;;1.48;0.88;;;;;;;16.25;60.08;100350.59;5298784;27;20065;-92
2023/09/08 03:25:32;;;;;;;0.43;0.43;;;;;;;16.06;60.06;100357.59;5261252;27;20061;-93
2023/09/08 03:27:57;;;;;;;0.00;0.00;;;;;;;16.07;60.06;100358.44;5298033;27;20354;-92
2023/09/08 03:30:23;;;;;;;0.52;0.52;;;;;;;16.17;60.07;100351.88;5297835;27;20315;-92
2023/09/08 03:32:48;;;;;;;0.15;0.15;;;;;;;16.15;60.06;100351.94;5298143;27;20462;-93
2023/09/08 03:35:14;;;;;;;0.62;0.50;;;;;;;16.10;60.07;100360.97;5298372;27;20156;-91
2023/09/08 03:37:39;;;;;;;0.90;0.50;;;;;;;16.44;60.08;100347.97;5297139;27;20167;-91
2023/09/08 03:40:06;;;;;;;0.08;0.08;;;;;;;16.10;60.07;100356.56;5297516;27;20167;-92
2023/09/08 03:42:31;;;;;;;0.55;0.43;;;;;;;16.03;60.06;100354.25;5262866;27;20083;-95
2023/09/08 03:44:59;;;;;;;0.68;0.62;;;;;;;16.09;60.07;100352.22;5300335;27;20061;-94
2023/09/08 03:47:24;;;;;;;0.30;0.30;;;;;;;16.09;60.07;100349.59;5291389;27;20085;-92
2023/09/08 03:49:50;;;;;;;0.55;0.43;;;;;;;16.32;60.08;100348.53;5299998;27;20386;-94
2023/09/08 03:52:16;;;;;;;0.32;0.32;;;;;;;16.31;60.08;100341.56;5280478;27;111622;-94
2023/09/08 03:54:46;;;;;;;4.57;1.40;;;;;;;16.11;60.07;100346.91;5260073;27;20053;-94
2023/09/08 03:57:19;;;;;;;;;;;;;;;16.18;60.07;100349.19;5264552;27;20053;-93
2023/09/08 03:59:44;;;;;;;0.35;0.30;;;;;;;16.27;60.08;100356.63;5299291;27;20366;-91
2023/09/08 04:02:09;;;;;;;0.57;0.57;;;;;;;16.42;60.08;100349.81;5298981;27;20069;-92
2023/09/08 04:04:47;;;;;;;0.47;0.47;;;;;;;16.16;60.07;100361.53;5298755;27;20139;-96
2023/09/08 04:07:12;;;;;;;1.55;0.45;;;;;;;16.42;60.08;100348.97;5299241;27;20113;-93
2023/09/08 04:09:38;;;;;;;0.10;0.10;;;;;;;16.37;60.07;100362.31;5281513;27;20075;-93
2023/09/08 04:12:03;;;;;;;0.68;0.68;;;;;;;16.24;60.08;100356.75;5298962;27;20084;-92
2023/09/08 04:14:30;;;;;;;0.20;0.20;;;;;;;16.27;60.07;100361.03;5281257;27;20072;-92
2023/09/08 04:16:55;;;;;;;0.05;0.05;;;;;;;16.26;60.08;100361.94;5280789;27;20061;-92
2023/09/08 04:19:21;;;;;;;1.48;0.70;;;;;;;16.34;60.08;100364.25;5281068;27;20326;-92
2023/09/08 04:21:46;;;;;;;0.75;0.37;;;;;;;16.33;60.08;100359.91;5262354;27;20390;-92
2023/09/08 04:24:12;;;;;;;0.32;0.32;;;;;;;16.62;60.10;100355.94;5298916;27;20416;-91
2023/09/08 04:26:37;;;;;;;0.13;0.13;;;;;;;16.53;60.08;100357.19;5298637;27;20448;-92
2023/09/08 04:29:03;;;;;;;0.32;0.32;;;;;;;16.44;60.07;100361.12;5298851;27;20399;-93
2023/09/08 04:31:28;;;;;;;0.85;0.85;;;;;;;16.42;60.08;100357.72;5299254;27;20427;-93
2023/09/08 04:33:54;;;;;;;0.17;0.17;;;;;;;16.46;60.08;100356.63;5300462;27;20108;-92
2023/09/08 04:36:19;;;;;;;0.03;0.03;;;;;;;16.46;60.08;100363.66;5299717;27;20120;-93
2023/09/08 04:38:45;;;;;;;0.62;0.62;;;;;;;16.50;60.09;100362.59;5281906;27;20157;-93
2023/09/08 04:41:10;;;;;;;0.08;0.08;;;;;;;16.53;60.09;100359.81;5300228;27;20052;-93
2023/09/08 04:43:35;;;;;;;0.40;0.37;;;;;;;16.58;60.09;100356.06;5298685;27;20049;-91
2023/09/08 04:46:03;;;;;;;0.17;0.17;;;;;;;16.55;60.09;100360.59;5298842;27;20050;-93
2023/09/08 04:48:29;;;;;;;0.25;0.25;;;;;;;16.79;60.10;100359.47;5298790;27;20064;-94
2023/09/08 04:50:54;;;;;;;0.70;0.47;;;;;;;16.74;60.10;100361.47;5262883;27;20072;-91
2023/09/08 04:53:29;;;;;;;0.43;0.43;;;;;;;17.03;60.12;100365.31;5299459;27;20089;-92
2023/09/08 04:55:54;;;;;;;4.90;0.68;;;;;;;17.06;60.11;100369.59;5316197;26;20050;-93
2023/09/08 04:58:20;;;;;;;0.10;0.10;;;;;;;17.13;60.11;100357.84;5297585;27;20110;-92
2023/09/08 05:00:45;;;;;;;0.60;0.60;;;;;;;17.15;60.12;100361.25;5279492;27;20472;-92
2023/09/08 05:03:10;;;;;;;4.00;0.70;;;;;;;17.12;60.11;100361.41;5298213;27;20120;-93
2023/09/08 05:05:36;;;;;;;1.12;0.55;;;;;;;17.14;60.11;100359.56;5298036;27;20326;-93
2023/09/08 05:08:01;;;;;;;0.40;0.40;;;;;;;17.39;60.12;100367.06;5297998;27;20410;-92
2023/09/08 05:10:27;;;;;;;1.10;0.45;;;;;;;17.38;60.14;100363.59;5280098;27;20138;-93
2023/09/08 05:12:52;;;;;;;0.55;0.25;;;;;;;17.59;60.14;100366.91;5298386;27;20113;-93
2023/09/08 05:15:20;;;;;;;1.67;1.20;;;;;;;17.72;60.15;100364.53;5298490;27;20076;-92
2023/09/08 05:17:46;;;;;;;0.50;0.50;;;;;;;17.82;60.15;100370.19;5298677;27;20073;-92
2023/09/08 05:20:11;;;;;;;0.37;0.20;;;;;;;17.91;60.16;100367.91;5298351;27;20408;-93
2023/09/08 05:22:37;;;;;;;0.15;0.15;;;;;;;18.13;60.17;100367.62;5298187;27;20139;-92
2023/09/08 05:25:03;;;;;;;1.02;0.77;;;;;;;18.33;60.18;100374.47;5298044;27;20160;-92
2023/09/08 05:27:28;;;;;;;0.45;0.45;;;;;;;18.35;60.18;100365.53;5280029;27;20052;-92
2023/09/08 05:29:54;;;;;;;0.00;0.00;;;;;;;18.47;60.19;100366.69;5316712;27;20079;-91
2023/09/08 05:32:19;;;;;;;0.43;0.43;;;;;;;18.60;60.19;100366.84;5297898;27;20045;-93
2023/09/08 05:34:51;;;;;;;0.40;0.40;;;;;;;18.77;60.20;100379.13;5297787;27;20147;-91
2023/09/08 05:37:16;;;;;;;0.20;0.20;;;;;;;18.86;60.21;100371.53;5298076;27;20057;-91
2023/09/08 05:39:42;;;;;;;5.00;0.68;;;;;;;18.99;60.21;100366.44;5297759;27;20088;-92
2023/09/08 05:42:07;;;;;;;1.30;1.02;;;;;;;19.17;60.23;100362.75;5279467;27;20052;-92
2023/09/08 05:44:32;;;;;;;0.37;0.20;;;;;;;19.34;60.24;100367.03;5298002;27;20087;-93
2023/09/08 05:46:58;;;;;;;0.55;0.55;;;;;;;19.54;60.25;100361.47;5315942;27;20108;-92
2023/09/08 05:49:23;;;;;;;1.20;1.10;;;;;;;19.70;60.24;100360.56;5316364;27;20123;-92
2023/09/08 05:51:49;;;;;;;0.75;0.75;;;;;;;20.02;60.27;100362.09;5278937;27;20999;-92
2023/09/08 05:54:15;;;;;;;1.95;0.70;;;;;;;20.26;60.28;100365.00;5297671;27;20136;-91
2023/09/08 05:56:40;;;;;;;0.37;0.37;;;;;;;20.26;60.28;100357.06;5279442;27;20314;-92
2023/09/08 05:59:06;;;;;;;0.90;0.90;;;;;;;20.40;60.29;100357.09;5297748;27;20073;-93
2023/09/08 06:01:31;;;;;;;1.23;0.93;;;;;;;20.49;60.30;100360.97;5298010;27;20067;-93
2023/09/08 06:03:57;;;;;;;1.45;1.35;;;;;;;20.76;60.31;100353.03;5297964;27;20121;-92
2023/09/08 06:06:22;;;;;;;1.50;1.00;;;;;;;20.91;60.32;100356.50;5296806;27;20061;-91
2023/09/08 06:08:48;;;;;;;0.28;0.25;;;;;;;20.91;60.31;100359.16;5297550;27;20072;-91
2023/09/08 06:11:13;;;;;;;0.85;0.47;;;;;;;21.07;60.32;100359.84;5297592;27;20082;-92
2023/09/08 06:13:39;;;;;;;1.65;1.25;;;;;;;21.29;60.33;100360.13;5297328;27;20063;-92
2023/09/08 06:16:04;;;;;;;0.05;0.05;;;;;;;21.63;60.35;100360.53;5316730;27;20109;-92
2023/09/08 06:18:30;;;;;;;0.30;0.30;;;;;;;21.67;60.35;100354.91;5315743;27;20388;-93
2023/09/08 06:20:56;;;;;;;0.70;0.60;;;;;;;21.92;60.36;100347.91;5297133;27;20045;-93
2023/09/08 06:23:21;;;;;;;1.05;0.60;;;;;;;21.89;60.37;100359.59;5297198;27;20432;-93
2023/09/08 06:25:47;;;;;;;0.10;0.10;;;;;;;22.14;60.38;100360.56;5297075;27;20061;-94
2023/09/08 06:28:12;;;;;;;0.10;0.10;;;;;;;22.30;60.39;100366.50;5297466;27;20138;-93
2023/09/08 06:30:41;;;;;;;0.55;0.30;;;;;;;22.46;60.39;100363.56;5297315;27;20056;-92
2023/09/08 06:33:07;;;;;;;3.87;0.55;;;;;;;22.50;60.40;100363.28;5296465;27;20049;-94
2023/09/08 06:35:33;;;;;;;0.70;0.62;;;;;;;22.78;60.41;100359.47;5297335;27;20111;-93
2023/09/08 06:37:59;;;;;;;0.20;0.20;;;;;;;22.71;60.41;100357.34;5279087;27;20127;-94
2023/09/08 06:40:24;;;;;;;0.55;0.40;;;;;;;23.14;60.43;100355.06;5297298;27;20079;-93
2023/09/08 06:42:50;;;;;;;0.20;0.20;;;;;;;23.19;60.43;100360.91;5278312;27;20100;-92
2023/09/08 06:45:15;;;;;;;2.08;1.05;;;;;;;23.32;60.44;100358.16;5296984;27;20484;-93
2023/09/08 06:47:41;;;;;;;0.03;0.03;;;;;;;23.45;60.45;100358.94;5297044;27;20061;-92
2023/09/08 06:50:06;;;;;;;0.28;0.28;;;;;;;23.62;60.46;100352.34;5296842;27;20131;-93
2023/09/08 06:52:32;;;;;;;2.22;2.00;;;;;;;23.81;60.46;100363.28;5296777;27;20307;-93
2023/09/08 06:54:57;;;;;;;0.52;0.52;;;;;;;23.82;60.47;100365.81;5296995;27;20179;-93
2023/09/08 06:57:23;;;;;;;0.52;0.50;;;;;;;23.97;60.47;100349.66;5278836;27;20095;-91
2023/09/08 06:59:48;;;;;;;0.10;0.10;;;;;;;24.11;60.48;100354.72;5279446;27;20459;-94
2023/09/08 07:02:14;;;;;;;3.37;0.52;;;;;;;24.10;60.48;100351.19;5315444;27;20052;-92
2023/09/08 07:04:39;;;;;;;0.45;0.45;;;;;;;24.43;60.49;100352.19;5279093;27;20049;-92
2023/09/08 07:07:07;;;;;;;0.17;0.10;;;;;;;24.34;60.49;100355.59;5297197;27;20061;-93
2023/09/08 07:09:36;;;;;;;0.52;0.52;;;;;;;24.42;60.49;100346.03;5296944;27;20053;-92
2023/09/08 07:12:06;;;;;;;0.68;0.68;;;;;;;24.44;60.49;100361.88;5296376;27;20223;-92
2023/09/08 07:14:31;;;;;;;0.65;0.65;;;;;;;24.47;60.50;100357.16;5278886;27;20080;-91
2023/09/08 07:16:57;;;;;;;0.25;0.25;;;;;;;24.48;60.50;100350.84;5296882;27;20095;-91
2023/09/08 07:19:22;;;;;;;0.15;0.15;;;;;;;24.63;60.51;100345.28;5315913;27;20060;-92
2023/09/08 07:21:47;;;;;;;0.52;0.52;;;;;;;24.77;60.52;100345.00;5297719;27;20081;-93
2023/09/08 07:24:13;;;;;;;0.80;0.52;;;;;;;24.85;60.52;100344.38;5297856;27;20103;-92
2023/09/08 07:26:38;;;;;;;0.65;0.47;;;;;;;24.93;60.53;100342.75;5297832;27;20115;-91
2023/09/08 07:29:04;;;;;;;0.17;0.17;;;;;;;25.00;60.54;100329.81;5297966;27;20885;-92
2023/09/08 07:31:29;;;;;;;1.77;1.02;;;;;;;24.90;60.52;100331.53;5298135;27;20090;-92
2023/09/08 07:33:55;;;;;;;0.70;0.70;;;;;;;24.87;60.52;100334.44;5298184;27;20529;-92
2023/09/08 07:36:20;;;;;;;1.55;0.65;;;;;;;25.06;60.53;100331.97;5298100;27;20481;-92
2023/09/08 07:38:46;;;;;;;1.95;0.88;;;;;;;25.19;60.54;100324.66;5280093;27;20077;-91
2023/09/08 07:41:11;;;;;;;1.17;0.80;;;;;;;25.27;60.55;100332.84;5316646;27;20374;-93
2023/09/08 07:43:40;;;;;;;0.90;0.77;;;;;;;25.23;60.55;100330.56;5261769;27;20438;-93
2023/09/08 07:46:06;;;;;;;1.98;0.77;;;;;;;25.32;60.55;100325.31;5315519;27;20064;-91
2023/09/08 07:48:32;;;;;;;0.28;0.22;;;;;;;25.58;60.56;100328.44;5298008;27;20061;-92
2023/09/08 07:50:59;;;;;;;1.45;1.25;;;;;;;25.47;60.56;100331.16;5298041;27;20406;-92
2023/09/08 07:53:25;;;;;;;0.28;0.28;;;;;;;25.47;60.56;100322.31;5297584;27;20463;-90
2023/09/08 07:55:51;;;;;;;3.45;1.30;;;;;;;25.60;60.56;100322.97;5279568;27;20086;-93
2023/09/08 07:58:16;;;;;;;0.37;0.37;;;;;;;25.75;60.57;100328.81;5297989;27;20446;-93
2023/09/08 08:00:42;;;;;;;1.25;0.65;;;;;;;25.60;60.56;100320.31;5298069;27;20433;-92
2023/09/08 08:03:08;;;;;;;0.28;0.28;;;;;;;25.65;60.57;100324.25;5298161;27;20093;-91
2023/09/08 08:05:33;;;;;;;1.08;0.98;;;;;;;25.88;60.58;100324.97;5316329;27;20115;-91
2023/09/08 08:18:21;;;;;;;1.00;0.90;;;;;;;26.19;60.60;100328.47;5299518;27;20119;-93
2023/09/08 08:20:46;;;;;;;0.32;0.32;;;;;;;26.19;60.60;100323.12;5316630;27;20496;-92
2023/09/08 08:23:11;;;;;;;2.53;0.45;;;;;;;26.29;60.60;100324.03;5279864;27;20049;-91
2023/09/08 08:25:37;;;;;;;0.90;0.65;;;;;;;26.35;60.60;100324.50;5279730;27;20073;-92
2023/09/08 08:28:02;;;;;;;1.95;0.47;;;;;;;26.53;60.61;100321.03;5297558;27;20394;-92
2023/09/08 08:30:28;;;;;;;0.57;0.55;;;;;;;26.69;60.62;100319.63;5261513;27;20072;-92
2023/09/08 08:32:53;;;;;;;0.57;0.57;;;;;;;26.86;60.63;100317.12;5297636;27;20061;-93
2023/09/08 08:35:20;;;;;;;0.20;0.20;;;;;;;26.92;60.63;100311.22;5297621;27;20057;-91
2023/09/08 08:37:45;;;;;;;1.55;0.85;;;;;;;27.16;60.64;100316.16;5298041;27;20065;-93
2023/09/08 08:40:12;;;;;;;0.00;0.00;;;;;;;27.09;60.64;100309.72;5297777;27;20062;-92
2023/09/08 08:42:37;;;;;;;0.73;0.70;;;;;;;27.13;60.65;100302.25;5297519;27;20064;-92
2023/09/08 08:45:03;;;;;;;0.52;0.28;;;;;;;27.28;60.66;100300.84;5316125;27;20084;-92
2023/09/08 08:47:29;;;;;;;0.37;0.37;;;;;;;27.48;60.66;100310.53;5297557;27;20070;-93
2023/09/08 08:49:56;;;;;;;0.75;0.75;;;;;;;27.53;60.67;100308.25;5297925;27;20379;-92
2023/09/08 08:52:21;;;;;;;0.47;0.47;;;;;;;27.42;60.67;100311.06;5315982;27;20707;-93
2023/09/08 08:54:47;;;;;;;0.55;0.55;;;;;;;27.61;60.68;100310.19;5279549;27;20061;-92
2023/09/08 08:57:13;;;;;;;0.75;0.57;;;;;;;27.76;60.68;100303.44;5297555;27;20095;-93
2023/09/08 08:59:41;;;;;;;0.80;0.50;;;;;;;27.89;60.68;100299.56;5297685;27;20061;-93
2023/09/08 09:02:07;;;;;;;0.60;0.60;;;;;;;28.08;60.70;100300.34;5297367;27;20793;-93
2023/09/08 09:04:32;;;;;;;2.25;0.98;;;;;;;28.11;60.69;100299.19;5297796;27;20054;-93
2023/09/08 09:06:58;;;;;;;0.57;0.57;;;;;;;28.20;60.70;100292.13;5297622;27;20061;-92
2023/09/08 09:09:23;;;;;;;5.78;1.95;;;;;;;28.34;60.70;100292.47;5297603;27;20056;-94
2023/09/08 09:11:49;;;;;;;0.82;0.60;;;;;;;28.60;60.72;100291.75;5316168;27;20095;-94
2023/09/08 09:14:16;;;;;;;0.47;0.47;;;;;;;28.61;60.72;100288.91;5297681;27;20085;-93
2023/09/08 09:16:43;;;;;;;0.73;0.73;;;;;;;28.91;60.73;100293.12;5307023;27;20057;-93
2023/09/08 09:19:09;;;;;;;2.17;1.15;;;;;;;29.10;60.75;100284.03;5297533;27;20394;-93
2023/09/08 09:21:46;;;;;;;0.88;0.88;;;;;;;29.26;60.76;100275.28;5297759;27;20053;-94
2023/09/08 09:24:18;;;;;;;0.20;0.20;;;;;;;29.21;60.75;100278.44;5316071;27;20061;-93
2023/09/08 09:26:43;;;;;;;0.50;0.50;;;;;;;29.43;60.77;100274.41;5279534;27;20057;-93
2023/09/08 09:29:15;;;;;;;0.40;0.40;;;;;;;29.36;60.76;100275.22;5278764;27;25559;-93
2023/09/08 09:32:04;;;;;;;2.90;1.70;;;;;;;29.59;60.77;100268.34;5298061;27;20053;-93
2023/09/08 09:34:29;;;;;;;1.20;0.70;;;;;;;29.49;60.77;100270.28;5254472;27;20803;-94
2023/09/08 09:36:55;;;;;;;0.98;0.90;;;;;;;29.67;60.78;100270.22;5279672;27;20075;-93
2023/09/08 09:39:21;;;;;;;0.50;0.50;;;;;;;29.69;60.78;100266.38;5279621;27;20053;-93
2023/09/08 09:41:47;;;;;;;0.80;0.57;;;;;;;29.78;60.78;100264.56;5278913;27;20075;-92
2023/09/08 09:44:12;;;;;;;3.08;0.37;;;;;;;29.96;60.79;100270.69;5279432;27;20606;-93
2023/09/08 09:46:38;;;;;;;1.55;1.08;;;;;;;30.01;60.79;100273.75;5261445;27;20108;-93
2023/09/08 09:49:03;;;;;;;0.75;0.75;;;;;;;30.11;60.79;100268.28;5279347;27;20073;-92
2023/09/08 09:51:29;;;;;;;2.50;0.62;;;;;;;30.17;60.80;100271.16;5297441;27;20049;-92
2023/09/08 09:53:54;;;;;;;0.45;0.45;;;;;;;30.29;60.81;100269.03;5279063;27;20091;-91
2023/09/08 09:56:20;;;;;;;0.52;0.43;;;;;;;30.23;60.80;100265.13;5279000;27;20382;-92
2023/09/08 09:58:45;;;;;;;1.17;0.95;;;;;;;30.23;60.81;100264.28;5297280;27;20097;-92
2023/09/08 10:01:11;;;;;;;0.30;0.30;;;;;;;30.57;60.82;100261.53;5297498;27;20052;-92
2023/09/08 10:03:41;;;;;;;1.48;1.25;;;;;;;30.70;60.83;100264.59;5297238;27;20315;-92
2023/09/08 10:06:06;;;;;;;;;;;;;;;30.74;60.83;100259.72;5297255;27;20114;-92
2023/09/08 10:08:36;;;;;;;1.40;1.30;;;;;;;30.92;60.85;100265.78;5315861;27;19972;-91
2023/09/08 10:11:02;;;;;;;0.93;0.57;;;;;;;31.03;60.85;100264.63;5299215;27;20180;-92
2023/09/08 10:13:28;;;;;;;1.27;0.57;;;;;;;31.24;60.85;100261.44;5278984;27;20057;-91
2023/09/08 10:15:57;;;;;;;0.22;0.22;;;;;;;31.26;60.86;100262.97;5297271;27;20120;-92
2023/09/08 10:18:22;;;;;;;19.80;0.93;;;;;;;31.31;60.87;100262.44;5297221;27;20083;-91
2023/09/08 10:20:48;;;;;;;0.20;0.20;;;;;;;31.29;60.86;100261.78;5315841;27;20311;-91
2023/09/08 10:23:24;;;;;;;2.65;0.80;;;;;;;31.44;60.86;100257.34;5315694;27;20326;-91
2023/09/08 10:25:54;;;;;;;0.00;0.00;;;;;;;31.58;60.87;100259.34;5279183;27;20073;-90
2023/09/08 10:28:19;;;;;;;0.68;0.68;;;;;;;31.60;60.87;100251.09;5297527;27;20081;-90
2023/09/08 10:30:45;;;;;;;1.05;0.40;;;;;;;31.51;60.87;100258.38;5297127;27;20044;-90
2023/09/08 10:33:11;;;;;;;1.75;0.82;;;;;;;31.58;60.87;100256.66;5297316;27;20112;-90
2023/09/08 10:35:36;;;;;;;1.60;0.65;;;;;;;31.50;60.88;100248.62;5315421;27;20065;-90
2023/09/08 10:38:21;;;;;;;1.75;1.20;;;;;;;31.60;60.88;100235.78;5279101;27;20054;-90
2023/09/08 10:40:46;;;;;;;2.65;0.50;;;;;;;31.64;60.88;100239.81;5297613;27;20052;-90
2023/09/08 10:43:11;;;;;;;0.20;0.20;;;;;;;31.58;60.88;100235.12;5315858;27;20395;-90
2023/09/08 10:45:37;;;;;;;1.75;1.27;;;;;;;31.73;60.89;100246.91;5296745;27;21211;-90
2023/09/08 10:48:03;;;;;;;4.40;0.62;;;;;;;31.57;60.88;100240.69;5297362;27;20101;-90
2023/09/08 10:50:33;;;;;;;1.48;0.68;;;;;;;31.45;60.87;100245.59;5297294;27;20118;-90
2023/09/08 10:53:16;;;;;;;0.70;0.50;;;;;;;31.38;60.88;100250.81;5279008;27;20077;-90
2023/09/08 10:55:50;;;;;;;0.62;0.62;;;;;;;31.49;60.88;100238.03;5279027;27;20065;-90
2023/09/08 10:58:38;;;;;;;1.05;0.57;;;;;;;31.67;60.88;100238.62;5278693;27;20087;-90
2023/09/08 11:01:04;;;;;;;0.68;0.55;;;;;;;31.68;60.88;100238.44;5279304;27;20044;-90
2023/09/08 11:03:42;;;;;;;7.20;1.37;;;;;;;31.64;60.89;100241.66;5278888;27;20111;-90
2023/09/08 11:06:07;;;;;;;0.80;0.68;;;;;;;31.25;60.87;100237.06;5298611;27;20056;-90
2023/09/08 11:08:33;;;;;;;0.45;0.45;;;;;;;31.20;60.86;100238.56;5298798;27;20121;-91
2023/09/08 11:11:00;;;;;;;0.60;0.60;;;;;;;31.31;60.87;100236.38;5297191;27;20171;-91
2023/09/08 11:13:25;;;;;;;0.95;0.95;;;;;;;31.63;60.89;100231.91;5298454;27;20061;-90
2023/09/08 11:15:55;;;;;;;0.60;0.55;;;;;;;31.70;60.88;100233.72;5297053;27;20100;-90
2023/09/08 11:18:38;;;;;;;1.75;1.05;;;;;;;31.36;60.87;100230.47;5278781;27;20646;-91
2023/09/08 11:21:08;;;;;;;0.37;0.30;;;;;;;31.37;60.87;100226.78;5297061;27;20067;-91
2023/09/08 11:23:34;;;;;;;2.28;1.27;;;;;;;31.51;60.88;100227.94;5279149;27;20597;-91
2023/09/08 11:25:59;;;;;;;0.70;0.50;;;;;;;31.22;60.85;100223.94;5278604;27;20127;-91
2023/09/08 11:28:25;;;;;;;0.40;0.40;;;;;;;31.18;60.86;100225.28;5260658;27;20068;-91
2023/09/08 11:30:50;;;;;;;0.15;0.15;;;;;;;31.13;60.85;100217.72;5296050;27;27925;-91
2023/09/08 11:33:17;;;;;;;0.28;0.28;;;;;;;31.48;60.88;100217.53;5278695;27;20115;-91
2023/09/08 11:35:45;;;;;;;0.30;0.30;;;;;;;31.36;60.87;100219.72;5260819;27;20065;-91
2023/09/08 11:38:10;;;;;;;0.50;0.50;;;;;;;31.49;60.88;100205.75;5297122;27;20113;-91
2023/09/08 11:40:36;;;;;;;1.75;0.52;;;;;;;31.55;60.88;100208.56;5278894;27;20085;-91
2023/09/08 11:43:02;;;;;;;0.28;0.28;;;;;;;31.59;60.88;100206.37;5278970;27;20060;-91